sensor_id;sensor_type;location;lat;lon;timestamp;temperature;humidity
76120;DHT22;64852;48.092;-1.640;2024-01-30T00:00:37;13.00;99.90
76120;DHT22;64852;48.092;-1.640;2024-01-30T00:03:03;13.10;99.90
76120;DHT22;64852;48.092;-1.640;2024-01-30T00:05:28;13.10;99.90
76120;DHT22;64852;48.092;-1.640;2024-01-30T00:07:54;13.00;99.90
76120;DHT22;64852;48.092;-1.640;2024-01-30T00:10:20;13.00;99.90
76120;DHT22;64852;48.092;-1.640;2024-01-30T00:12:46;13.10;99.90
76120;DHT22;64852;48.092;-1.640;2024-01-30T00:15:11;13.00;99.90
76120;DHT22;64852;48.092;-1.640;2024-01-30T00:17:37;13.00;99.90
76120;DHT22;64852;48.092;-1.640;2024-01-30T00:20:02;13.10;99.90
76120;DHT22;64852;48.092;-1.640;2024-01-30T00:22:33;13.10;99.90
76120;DHT22;64852;48.092;-1.640;2024-01-30T00:24:58;13.10;99.90
76120;DHT22;64852;48.092;-1.640;2024-01-30T00:27:24;13.10;99.90
76120;DHT22;64852;48.092;-1.640;2024-01-30T00:29:50;13.00;99.90
76120;DHT22;64852;48.092;-1.640;2024-01-30T00:32:15;13.00;99.90
76120;DHT22;64852;48.092;-1.640;2024-01-30T00:34:41;13.00;99.90
76120;DHT22;64852;48.092;-1.640;2024-01-30T00:37:07;13.10;99.90
76120;DHT22;64852;48.092;-1.640;2024-01-30T00:39:32;13.00;99.90
76120;DHT22;64852;48.092;-1.640;2024-01-30T00:41:58;12.90;99.90
76120;DHT22;64852;48.092;-1.640;2024-01-30T00:44:23;13.00;99.90
76120;DHT22;64852;48.092;-1.640;2024-01-30T00:46:49;13.00;99.90
76120;DHT22;64852;48.092;-1.640;2024-01-30T00:49:15;12.90;99.90
76120;DHT22;64852;48.092;-1.640;2024-01-30T00:51:40;13.00;99.90
76120;DHT22;64852;48.092;-1.640;2024-01-30T00:54:06;12.90;99.90
76120;DHT22;64852;48.092;-1.640;2024-01-30T00:56:31;13.00;99.90
76120;DHT22;64852;48.092;-1.640;2024-01-30T00:58:57;13.00;99.90
76120;DHT22;64852;48.092;-1.640;2024-01-30T01:01:23;13.00;99.90
76120;DHT22;64852;48.092;-1.640;2024-01-30T01:03:48;12.90;99.90
76120;DHT22;64852;48.092;-1.640;2024-01-30T01:06:14;14.30;99.90
76120;DHT22;64852;48.092;-1.640;2024-01-30T01:08:40;13.00;99.90
76120;DHT22;64852;48.092;-1.640;2024-01-30T01:11:05;12.00;99.90
76120;DHT22;64852;48.092;-1.640;2024-01-30T01:13:31;12.90;99.90
76120;DHT22;64852;48.092;-1.640;2024-01-30T01:15:56;13.00;99.90
76120;DHT22;64852;48.092;-1.640;2024-01-30T01:18:22;13.00;99.90
76120;DHT22;64852;48.092;-1.640;2024-01-30T01:20:47;13.00;99.90
76120;DHT22;64852;48.092;-1.640;2024-01-30T01:23:13;13.10;99.90
76120;DHT22;64852;48.092;-1.640;2024-01-30T01:25:39;13.10;99.90
76120;DHT22;64852;48.092;-1.640;2024-01-30T01:28:05;13.00;99.90
76120;DHT22;64852;48.092;-1.640;2024-01-30T01:30:30;13.10;99.90
76120;DHT22;64852;48.092;-1.640;2024-01-30T01:32:56;13.10;99.90
76120;DHT22;64852;48.092;-1.640;2024-01-30T01:35:23;13.10;99.90
76120;DHT22;64852;48.092;-1.640;2024-01-30T01:37:50;13.20;99.90
76120;DHT22;64852;48.092;-1.640;2024-01-30T01:40:23;13.10;99.90
76120;DHT22;64852;48.092;-1.640;2024-01-30T01:42:51;13.20;99.90
76120;DHT22;64852;48.092;-1.640;2024-01-30T01:45:17;13.10;99.90
76120;DHT22;64852;48.092;-1.640;2024-01-30T01:47:43;13.10;99.90
76120;DHT22;64852;48.092;-1.640;2024-01-30T01:50:12;13.10;99.90
76120;DHT22;64852;48.092;-1.640;2024-01-30T01:52:38;13.10;99.90
76120;DHT22;64852;48.092;-1.640;2024-01-30T01:55:05;13.00;99.90
76120;DHT22;64852;48.092;-1.640;2024-01-30T01:57:31;13.00;99.90
76120;DHT22;64852;48.092;-1.640;2024-01-30T01:59:56;13.20;99.90
76120;DHT22;64852;48.092;-1.640;2024-01-30T02:02:22;13.10;99.90
76120;DHT22;64852;48.092;-1.640;2024-01-30T02:04:49;13.10;99.90
76120;DHT22;64852;48.092;-1.640;2024-01-30T02:07:14;13.10;99.90
76120;DHT22;64852;48.092;-1.640;2024-01-30T02:09:40;14.00;99.90
76120;DHT22;64852;48.092;-1.640;2024-01-30T02:12:06;13.00;99.90
76120;DHT22;64852;48.092;-1.640;2024-01-30T02:14:31;13.00;99.90
76120;DHT22;64852;48.092;-1.640;2024-01-30T02:16:57;12.90;99.90
76120;DHT22;64852;48.092;-1.640;2024-01-30T02:19:22;12.90;99.90
76120;DHT22;64852;48.092;-1.640;2024-01-30T02:21:48;13.00;99.90
76120;DHT22;64852;48.092;-1.640;2024-01-30T02:24:13;12.90;99.90
76120;DHT22;64852;48.092;-1.640;2024-01-30T02:26:39;12.80;99.90
76120;DHT22;64852;48.092;-1.640;2024-01-30T02:29:04;12.90;99.90
76120;DHT22;64852;48.092;-1.640;2024-01-30T02:31:30;12.70;99.90
76120;DHT22;64852;48.092;-1.640;2024-01-30T02:33:55;12.70;99.90
76120;DHT22;64852;48.092;-1.640;2024-01-30T02:36:21;12.60;99.90
76120;DHT22;64852;48.092;-1.640;2024-01-30T02:38:46;12.70;99.90
76120;DHT22;64852;48.092;-1.640;2024-01-30T02:41:12;12.60;99.90
76120;DHT22;64852;48.092;-1.640;2024-01-30T02:43:38;12.50;99.90
76120;DHT22;64852;48.092;-1.640;2024-01-30T02:46:03;11.80;99.90
76120;DHT22;64852;48.092;-1.640;2024-01-30T02:48:29;12.50;99.90
76120;DHT22;64852;48.092;-1.640;2024-01-30T02:50:54;12.50;99.90
76120;DHT22;64852;48.092;-1.640;2024-01-30T02:53:20;12.50;99.90
76120;DHT22;64852;48.092;-1.640;2024-01-30T02:55:45;12.50;99.90
76120;DHT22;64852;48.092;-1.640;2024-01-30T02:58:11;12.40;99.90
76120;DHT22;64852;48.092;-1.640;2024-01-30T03:00:36;12.40;99.90
76120;DHT22;64852;48.092;-1.640;2024-01-30T03:03:02;12.50;99.90
76120;DHT22;64852;48.092;-1.640;2024-01-30T03:05:27;12.50;99.90
76120;DHT22;64852;48.092;-1.640;2024-01-30T03:07:53;12.40;99.90
76120;DHT22;64852;48.092;-1.640;2024-01-30T03:10:19;12.40;99.90
76120;DHT22;64852;48.092;-1.640;2024-01-30T03:12:44;12.40;99.90
76120;DHT22;64852;48.092;-1.640;2024-01-30T03:15:10;12.30;99.90
76120;DHT22;64852;48.092;-1.640;2024-01-30T03:17:35;12.30;99.90
76120;DHT22;64852;48.092;-1.640;2024-01-30T03:20:02;12.40;99.90
76120;DHT22;64852;48.092;-1.640;2024-01-30T03:22:29;12.30;99.90
76120;DHT22;64852;48.092;-1.640;2024-01-30T03:24:54;12.30;99.90
76120;DHT22;64852;48.092;-1.640;2024-01-30T03:27:19;12.20;99.90
76120;DHT22;64852;48.092;-1.640;2024-01-30T03:29:45;12.30;99.90
76120;DHT22;64852;48.092;-1.640;2024-01-30T03:32:10;12.20;99.90
76120;DHT22;64852;48.092;-1.640;2024-01-30T03:34:36;12.20;99.90
76120;DHT22;64852;48.092;-1.640;2024-01-30T03:37:02;12.10;99.90
76120;DHT22;64852;48.092;-1.640;2024-01-30T03:39:27;12.20;99.90
76120;DHT22;64852;48.092;-1.640;2024-01-30T03:41:53;12.20;99.90
76120;DHT22;64852;48.092;-1.640;2024-01-30T03:44:22;12.00;99.90
76120;DHT22;64852;48.092;-1.640;2024-01-30T03:46:47;12.10;99.90
76120;DHT22;64852;48.092;-1.640;2024-01-30T03:49:13;12.10;99.90
76120;DHT22;64852;48.092;-1.640;2024-01-30T03:51:39;12.00;99.90
76120;DHT22;64852;48.092;-1.640;2024-01-30T03:54:04;12.10;99.90
76120;DHT22;64852;48.092;-1.640;2024-01-30T03:56:30;12.10;99.90
76120;DHT22;64852;48.092;-1.640;2024-01-30T03:58:55;12.10;99.90
76120;DHT22;64852;48.092;-1.640;2024-01-30T04:01:22;12.10;99.90
76120;DHT22;64852;48.092;-1.640;2024-01-30T04:03:47;12.00;99.90
76120;DHT22;64852;48.092;-1.640;2024-01-30T04:06:13;12.10;99.90
76120;DHT22;64852;48.092;-1.640;2024-01-30T04:08:38;12.10;99.90
76120;DHT22;64852;48.092;-1.640;2024-01-30T04:11:04;10.90;99.90
76120;DHT22;64852;48.092;-1.640;2024-01-30T04:13:31;12.10;99.90
76120;DHT22;64852;48.092;-1.640;2024-01-30T04:15:58;12.10;99.90
76120;DHT22;64852;48.092;-1.640;2024-01-30T04:18:24;12.00;99.90
76120;DHT22;64852;48.092;-1.640;2024-01-30T04:20:49;12.10;99.90
76120;DHT22;64852;48.092;-1.640;2024-01-30T04:23:15;12.10;99.90
76120;DHT22;64852;48.092;-1.640;2024-01-30T04:25:40;12.00;99.90
76120;DHT22;64852;48.092;-1.640;2024-01-30T04:28:06;11.90;99.90
76120;DHT22;64852;48.092;-1.640;2024-01-30T04:30:31;11.90;99.90
76120;DHT22;64852;48.092;-1.640;2024-01-30T04:32:57;11.90;99.90
76120;DHT22;64852;48.092;-1.640;2024-01-30T04:35:23;12.00;99.90
76120;DHT22;64852;48.092;-1.640;2024-01-30T04:37:51;12.00;99.90
76120;DHT22;64852;48.092;-1.640;2024-01-30T04:40:17;11.80;99.90
76120;DHT22;64852;48.092;-1.640;2024-01-30T04:42:42;11.80;99.90
76120;DHT22;64852;48.092;-1.640;2024-01-30T04:45:08;11.90;99.90
76120;DHT22;64852;48.092;-1.640;2024-01-30T04:47:33;11.80;99.90
76120;DHT22;64852;48.092;-1.640;2024-01-30T04:49:59;11.80;99.90
76120;DHT22;64852;48.092;-1.640;2024-01-30T04:52:25;11.80;99.90
76120;DHT22;64852;48.092;-1.640;2024-01-30T04:54:50;11.80;99.90
76120;DHT22;64852;48.092;-1.640;2024-01-30T04:57:15;11.70;99.90
76120;DHT22;64852;48.092;-1.640;2024-01-30T04:59:41;12.20;99.90
76120;DHT22;64852;48.092;-1.640;2024-01-30T05:02:07;11.80;99.90
76120;DHT22;64852;48.092;-1.640;2024-01-30T05:04:32;11.90;99.90
76120;DHT22;64852;48.092;-1.640;2024-01-30T05:06:58;11.80;99.90
76120;DHT22;64852;48.092;-1.640;2024-01-30T05:09:23;11.70;99.90
76120;DHT22;64852;48.092;-1.640;2024-01-30T05:11:49;12.00;99.90
76120;DHT22;64852;48.092;-1.640;2024-01-30T05:14:14;11.60;99.90
76120;DHT22;64852;48.092;-1.640;2024-01-30T05:16:40;11.60;99.90
76120;DHT22;64852;48.092;-1.640;2024-01-30T05:19:06;11.50;99.90
76120;DHT22;64852;48.092;-1.640;2024-01-30T05:21:31;11.40;99.90
76120;DHT22;64852;48.092;-1.640;2024-01-30T05:23:57;11.50;99.90
76120;DHT22;64852;48.092;-1.640;2024-01-30T05:26:22;11.40;99.90
76120;DHT22;64852;48.092;-1.640;2024-01-30T05:28:48;11.30;99.90
76120;DHT22;64852;48.092;-1.640;2024-01-30T05:31:14;11.30;99.90
76120;DHT22;64852;48.092;-1.640;2024-01-30T05:33:40;11.30;99.90
76120;DHT22;64852;48.092;-1.640;2024-01-30T05:36:05;11.40;99.90
76120;DHT22;64852;48.092;-1.640;2024-01-30T05:38:31;11.30;99.90
76120;DHT22;64852;48.092;-1.640;2024-01-30T05:40:57;11.30;99.90
76120;DHT22;64852;48.092;-1.640;2024-01-30T05:43:25;11.30;99.90
76120;DHT22;64852;48.092;-1.640;2024-01-30T05:45:52;11.70;99.90
76120;DHT22;64852;48.092;-1.640;2024-01-30T05:48:18;11.90;99.90
76120;DHT22;64852;48.092;-1.640;2024-01-30T05:50:43;11.20;99.90
76120;DHT22;64852;48.092;-1.640;2024-01-30T05:53:10;11.30;99.90
76120;DHT22;64852;48.092;-1.640;2024-01-30T05:55:36;11.20;99.90
76120;DHT22;64852;48.092;-1.640;2024-01-30T05:58:01;12.10;99.90
76120;DHT22;64852;48.092;-1.640;2024-01-30T06:00:26;11.20;99.90
76120;DHT22;64852;48.092;-1.640;2024-01-30T06:03:01;11.30;99.90
76120;DHT22;64852;48.092;-1.640;2024-01-30T06:05:27;11.20;99.90
76120;DHT22;64852;48.092;-1.640;2024-01-30T06:07:52;11.00;99.90
76120;DHT22;64852;48.092;-1.640;2024-01-30T06:10:18;11.10;99.90
76120;DHT22;64852;48.092;-1.640;2024-01-30T06:12:44;11.10;99.90
76120;DHT22;64852;48.092;-1.640;2024-01-30T06:15:09;11.00;99.90
76120;DHT22;64852;48.092;-1.640;2024-01-30T06:17:35;11.00;99.90
76120;DHT22;64852;48.092;-1.640;2024-01-30T06:20:00;11.10;99.90
76120;DHT22;64852;48.092;-1.640;2024-01-30T06:22:26;10.90;99.90
76120;DHT22;64852;48.092;-1.640;2024-01-30T06:24:51;11.00;99.90
76120;DHT22;64852;48.092;-1.640;2024-01-30T06:27:17;10.90;99.90
76120;DHT22;64852;48.092;-1.640;2024-01-30T06:29:43;10.90;99.90
76120;DHT22;64852;48.092;-1.640;2024-01-30T06:32:08;11.60;99.90
76120;DHT22;64852;48.092;-1.640;2024-01-30T06:34:34;11.40;99.90
76120;DHT22;64852;48.092;-1.640;2024-01-30T06:36:59;11.50;99.90
76120;DHT22;64852;48.092;-1.640;2024-01-30T06:39:26;10.70;99.90
76120;DHT22;64852;48.092;-1.640;2024-01-30T06:41:51;10.60;99.90
76120;DHT22;64852;48.092;-1.640;2024-01-30T06:44:17;11.90;99.90
76120;DHT22;64852;48.092;-1.640;2024-01-30T06:46:42;10.40;99.90
76120;DHT22;64852;48.092;-1.640;2024-01-30T06:49:08;10.40;99.90
76120;DHT22;64852;48.092;-1.640;2024-01-30T06:51:33;10.40;99.90
76120;DHT22;64852;48.092;-1.640;2024-01-30T06:53:59;10.70;99.90
76120;DHT22;64852;48.092;-1.640;2024-01-30T06:56:24;10.30;99.90
76120;DHT22;64852;48.092;-1.640;2024-01-30T06:58:50;10.20;99.90
76120;DHT22;64852;48.092;-1.640;2024-01-30T07:01:16;10.30;99.90
76120;DHT22;64852;48.092;-1.640;2024-01-30T07:03:42;11.00;99.90
76120;DHT22;64852;48.092;-1.640;2024-01-30T07:06:08;10.60;99.90
76120;DHT22;64852;48.092;-1.640;2024-01-30T07:08:36;10.20;99.90
76120;DHT22;64852;48.092;-1.640;2024-01-30T07:11:02;10.20;99.90
76120;DHT22;64852;48.092;-1.640;2024-01-30T07:13:27;10.20;99.90
76120;DHT22;64852;48.092;-1.640;2024-01-30T07:15:54;10.10;99.90
76120;DHT22;64852;48.092;-1.640;2024-01-30T07:18:19;10.00;99.90
76120;DHT22;64852;48.092;-1.640;2024-01-30T07:20:45;10.10;99.90
76120;DHT22;64852;48.092;-1.640;2024-01-30T07:23:14;10.00;99.90
76120;DHT22;64852;48.092;-1.640;2024-01-30T07:25:42;10.00;99.90
76120;DHT22;64852;48.092;-1.640;2024-01-30T07:28:11;10.00;99.90
76120;DHT22;64852;48.092;-1.640;2024-01-30T07:30:42;10.00;99.90
76120;DHT22;64852;48.092;-1.640;2024-01-30T07:33:08;9.90;99.90
76120;DHT22;64852;48.092;-1.640;2024-01-30T07:35:34;9.90;99.90
76120;DHT22;64852;48.092;-1.640;2024-01-30T07:37:59;10.60;99.90
76120;DHT22;64852;48.092;-1.640;2024-01-30T07:40:25;10.00;99.90
76120;DHT22;64852;48.092;-1.640;2024-01-30T07:42:50;9.90;99.90
76120;DHT22;64852;48.092;-1.640;2024-01-30T07:45:16;10.00;99.90
76120;DHT22;64852;48.092;-1.640;2024-01-30T07:47:42;9.70;99.90
76120;DHT22;64852;48.092;-1.640;2024-01-30T07:50:07;10.60;99.90
76120;DHT22;64852;48.092;-1.640;2024-01-30T07:52:33;9.60;99.90
76120;DHT22;64852;48.092;-1.640;2024-01-30T07:54:59;9.70;99.90
76120;DHT22;64852;48.092;-1.640;2024-01-30T07:57:24;9.60;99.90
76120;DHT22;64852;48.092;-1.640;2024-01-30T07:59:50;10.40;99.90
76120;DHT22;64852;48.092;-1.640;2024-01-30T08:02:17;9.70;99.90
76120;DHT22;64852;48.092;-1.640;2024-01-30T08:04:45;9.70;99.90
76120;DHT22;64852;48.092;-1.640;2024-01-30T08:07:14;9.60;99.90
76120;DHT22;64852;48.092;-1.640;2024-01-30T08:09:39;10.50;99.90
76120;DHT22;64852;48.092;-1.640;2024-01-30T08:12:05;9.80;99.90
76120;DHT22;64852;48.092;-1.640;2024-01-30T08:14:30;9.70;99.90
76120;DHT22;64852;48.092;-1.640;2024-01-30T08:16:56;10.00;99.90
76120;DHT22;64852;48.092;-1.640;2024-01-30T08:19:21;10.20;99.90
76120;DHT22;64852;48.092;-1.640;2024-01-30T08:21:47;9.70;99.90
76120;DHT22;64852;48.092;-1.640;2024-01-30T08:24:12;10.10;99.90
76120;DHT22;64852;48.092;-1.640;2024-01-30T08:26:38;9.70;99.90
76120;DHT22;64852;48.092;-1.640;2024-01-30T08:29:03;9.70;99.90
76120;DHT22;64852;48.092;-1.640;2024-01-30T08:31:29;10.20;99.90
76120;DHT22;64852;48.092;-1.640;2024-01-30T08:33:54;9.70;99.90
76120;DHT22;64852;48.092;-1.640;2024-01-30T08:36:20;9.60;99.90
76120;DHT22;64852;48.092;-1.640;2024-01-30T08:38:46;9.70;99.90
76120;DHT22;64852;48.092;-1.640;2024-01-30T08:41:11;9.60;99.90
76120;DHT22;64852;48.092;-1.640;2024-01-30T08:43:37;10.00;99.90
76120;DHT22;64852;48.092;-1.640;2024-01-30T08:46:02;9.80;99.90
76120;DHT22;64852;48.092;-1.640;2024-01-30T08:48:28;9.70;99.90
76120;DHT22;64852;48.092;-1.640;2024-01-30T08:50:54;9.80;99.90
76120;DHT22;64852;48.092;-1.640;2024-01-30T08:53:19;10.30;99.90
76120;DHT22;64852;48.092;-1.640;2024-01-30T08:55:45;9.80;99.90
76120;DHT22;64852;48.092;-1.640;2024-01-30T08:58:10;9.80;99.90
76120;DHT22;64852;48.092;-1.640;2024-01-30T09:00:36;9.90;99.90
76120;DHT22;64852;48.092;-1.640;2024-01-30T09:03:02;9.80;99.90
76120;DHT22;64852;48.092;-1.640;2024-01-30T09:05:28;9.80;99.90
76120;DHT22;64852;48.092;-1.640;2024-01-30T09:07:53;10.70;99.90
76120;DHT22;64852;48.092;-1.640;2024-01-30T09:10:19;9.90;99.90
76120;DHT22;64852;48.092;-1.640;2024-01-30T09:12:44;10.20;99.90
76120;DHT22;64852;48.092;-1.640;2024-01-30T09:15:10;10.00;99.90
76120;DHT22;64852;48.092;-1.640;2024-01-30T09:17:35;9.90;99.90
76120;DHT22;64852;48.092;-1.640;2024-01-30T09:20:01;9.90;99.90
76120;DHT22;64852;48.092;-1.640;2024-01-30T09:22:26;10.00;99.90
76120;DHT22;64852;48.092;-1.640;2024-01-30T09:24:52;10.00;99.90
76120;DHT22;64852;48.092;-1.640;2024-01-30T09:27:17;10.00;99.90
76120;DHT22;64852;48.092;-1.640;2024-01-30T09:29:43;9.90;99.90
76120;DHT22;64852;48.092;-1.640;2024-01-30T09:32:08;10.00;99.90
76120;DHT22;64852;48.092;-1.640;2024-01-30T09:34:34;10.00;99.90
76120;DHT22;64852;48.092;-1.640;2024-01-30T09:37:00;10.60;99.90
76120;DHT22;64852;48.092;-1.640;2024-01-30T09:39:25;10.10;99.90
76120;DHT22;64852;48.092;-1.640;2024-01-30T09:42:14;10.30;99.90
76120;DHT22;64852;48.092;-1.640;2024-01-30T09:44:43;10.20;99.90
76120;DHT22;64852;48.092;-1.640;2024-01-30T09:47:08;10.30;99.90
76120;DHT22;64852;48.092;-1.640;2024-01-30T09:49:35;10.30;99.90
76120;DHT22;64852;48.092;-1.640;2024-01-30T09:52:03;10.40;99.90
76120;DHT22;64852;48.092;-1.640;2024-01-30T09:54:30;10.40;99.90
76120;DHT22;64852;48.092;-1.640;2024-01-30T09:56:57;10.70;99.90
76120;DHT22;64852;48.092;-1.640;2024-01-30T09:59:22;10.60;99.90
76120;DHT22;64852;48.092;-1.640;2024-01-30T10:01:48;10.70;99.90
76120;DHT22;64852;48.092;-1.640;2024-01-30T10:04:15;10.80;99.90
76120;DHT22;64852;48.092;-1.640;2024-01-30T10:06:40;11.00;99.90
76120;DHT22;64852;48.092;-1.640;2024-01-30T10:09:06;11.00;99.90
76120;DHT22;64852;48.092;-1.640;2024-01-30T10:11:32;12.00;99.90
76120;DHT22;64852;48.092;-1.640;2024-01-30T10:13:57;11.10;99.90
76120;DHT22;64852;48.092;-1.640;2024-01-30T10:16:23;11.30;99.90
76120;DHT22;64852;48.092;-1.640;2024-01-30T10:18:49;11.30;99.90
76120;DHT22;64852;48.092;-1.640;2024-01-30T10:21:14;11.70;99.90
76120;DHT22;64852;48.092;-1.640;2024-01-30T10:23:40;11.60;99.90
76120;DHT22;64852;48.092;-1.640;2024-01-30T10:26:06;11.70;99.90
76120;DHT22;64852;48.092;-1.640;2024-01-30T10:28:32;11.80;99.90
76120;DHT22;64852;48.092;-1.640;2024-01-30T10:30:58;11.90;99.90
76120;DHT22;64852;48.092;-1.640;2024-01-30T10:33:25;12.00;99.90
76120;DHT22;64852;48.092;-1.640;2024-01-30T10:35:51;12.00;99.90
76120;DHT22;64852;48.092;-1.640;2024-01-30T10:38:16;12.20;99.90
76120;DHT22;64852;48.092;-1.640;2024-01-30T10:40:43;12.10;99.90
76120;DHT22;64852;48.092;-1.640;2024-01-30T10:43:10;12.10;99.90
76120;DHT22;64852;48.092;-1.640;2024-01-30T10:45:36;12.30;99.90
76120;DHT22;64852;48.092;-1.640;2024-01-30T10:48:05;12.30;99.90
76120;DHT22;64852;48.092;-1.640;2024-01-30T10:50:31;12.30;99.90
76120;DHT22;64852;48.092;-1.640;2024-01-30T10:52:58;12.50;99.90
76120;DHT22;64852;48.092;-1.640;2024-01-30T10:55:25;12.60;99.90
76120;DHT22;64852;48.092;-1.640;2024-01-30T10:57:53;12.60;99.90
76120;DHT22;64852;48.092;-1.640;2024-01-30T11:00:19;12.70;99.90
76120;DHT22;64852;48.092;-1.640;2024-01-30T11:02:48;12.80;99.90
76120;DHT22;64852;48.092;-1.640;2024-01-30T11:05:14;13.00;99.90
76120;DHT22;64852;48.092;-1.640;2024-01-30T11:07:42;13.00;99.90
76120;DHT22;64852;48.092;-1.640;2024-01-30T11:10:08;13.20;99.90
76120;DHT22;64852;48.092;-1.640;2024-01-30T11:12:38;13.30;99.90
76120;DHT22;64852;48.092;-1.640;2024-01-30T11:15:06;13.50;99.90
76120;DHT22;64852;48.092;-1.640;2024-01-30T11:22:42;13.80;99.90
76120;DHT22;64852;48.092;-1.640;2024-01-30T11:25:15;13.90;99.90
76120;DHT22;64852;48.092;-1.640;2024-01-30T11:27:42;13.90;99.90
76120;DHT22;64852;48.092;-1.640;2024-01-30T11:30:08;13.70;99.90
76120;DHT22;64852;48.092;-1.640;2024-01-30T11:32:34;13.60;99.90
76120;DHT22;64852;48.092;-1.640;2024-01-30T11:34:59;13.60;99.90
76120;DHT22;64852;48.092;-1.640;2024-01-30T11:37:25;13.80;99.90
76120;DHT22;64852;48.092;-1.640;2024-01-30T11:39:53;13.80;99.90
76120;DHT22;64852;48.092;-1.640;2024-01-30T11:42:19;13.90;99.90
76120;DHT22;64852;48.092;-1.640;2024-01-30T11:44:48;13.80;99.90
76120;DHT22;64852;48.092;-1.640;2024-01-30T11:47:14;13.60;99.90
76120;DHT22;64852;48.092;-1.640;2024-01-30T11:49:39;13.50;99.90
76120;DHT22;64852;48.092;-1.640;2024-01-30T11:52:05;13.40;99.90
76120;DHT22;64852;48.092;-1.640;2024-01-30T11:54:31;13.60;99.90
76120;DHT22;64852;48.092;-1.640;2024-01-30T11:56:56;13.70;99.90
76120;DHT22;64852;48.092;-1.640;2024-01-30T11:59:22;14.00;99.90
76120;DHT22;64852;48.092;-1.640;2024-01-30T12:01:47;14.10;99.90
76120;DHT22;64852;48.092;-1.640;2024-01-30T12:04:13;14.10;99.90
76120;DHT22;64852;48.092;-1.640;2024-01-30T12:06:38;14.10;99.90
76120;DHT22;64852;48.092;-1.640;2024-01-30T12:09:04;14.10;99.90
76120;DHT22;64852;48.092;-1.640;2024-01-30T12:11:30;14.00;99.90
76120;DHT22;64852;48.092;-1.640;2024-01-30T12:13:56;13.90;99.90
76120;DHT22;64852;48.092;-1.640;2024-01-30T12:16:21;13.80;99.90
76120;DHT22;64852;48.092;-1.640;2024-01-30T12:18:47;14.10;99.90
76120;DHT22;64852;48.092;-1.640;2024-01-30T12:21:15;14.10;99.90
76120;DHT22;64852;48.092;-1.640;2024-01-30T12:23:41;14.40;99.90
76120;DHT22;64852;48.092;-1.640;2024-01-30T12:26:06;14.50;99.90
76120;DHT22;64852;48.092;-1.640;2024-01-30T12:28:33;14.90;99.90
76120;DHT22;64852;48.092;-1.640;2024-01-30T12:31:02;15.30;99.90
76120;DHT22;64852;48.092;-1.640;2024-01-30T12:33:28;15.50;99.90
76120;DHT22;64852;48.092;-1.640;2024-01-30T12:35:54;15.20;99.90
76120;DHT22;64852;48.092;-1.640;2024-01-30T12:38:19;15.00;99.90
76120;DHT22;64852;48.092;-1.640;2024-01-30T12:40:45;14.90;99.90
76120;DHT22;64852;48.092;-1.640;2024-01-30T12:43:13;15.30;99.90
76120;DHT22;64852;48.092;-1.640;2024-01-30T12:45:38;15.70;99.90
76120;DHT22;64852;48.092;-1.640;2024-01-30T12:48:04;15.70;99.90
76120;DHT22;64852;48.092;-1.640;2024-01-30T12:50:30;15.50;99.90
76120;DHT22;64852;48.092;-1.640;2024-01-30T12:52:55;15.20;99.90
76120;DHT22;64852;48.092;-1.640;2024-01-30T12:55:21;15.00;99.90
76120;DHT22;64852;48.092;-1.640;2024-01-30T12:57:46;14.90;99.90
76120;DHT22;64852;48.092;-1.640;2024-01-30T13:00:12;14.90;99.90
76120;DHT22;64852;48.092;-1.640;2024-01-30T13:02:37;15.00;99.90
76120;DHT22;64852;48.092;-1.640;2024-01-30T13:05:03;14.90;99.90
76120;DHT22;64852;48.092;-1.640;2024-01-30T13:07:29;14.80;99.90
76120;DHT22;64852;48.092;-1.640;2024-01-30T13:09:55;15.30;99.90
76120;DHT22;64852;48.092;-1.640;2024-01-30T13:12:22;15.90;99.90
76120;DHT22;64852;48.092;-1.640;2024-01-30T13:14:47;16.80;99.90
76120;DHT22;64852;48.092;-1.640;2024-01-30T13:17:13;17.40;99.90
76120;DHT22;64852;48.092;-1.640;2024-01-30T13:19:38;17.30;99.90
76120;DHT22;64852;48.092;-1.640;2024-01-30T13:22:04;16.70;99.90
76120;DHT22;64852;48.092;-1.640;2024-01-30T13:24:29;16.40;99.90
76120;DHT22;64852;48.092;-1.640;2024-01-30T13:26:55;16.00;99.90
76120;DHT22;64852;48.092;-1.640;2024-01-30T13:29:20;15.70;99.90
76120;DHT22;64852;48.092;-1.640;2024-01-30T13:31:46;15.40;99.90
76120;DHT22;64852;48.092;-1.640;2024-01-30T13:34:12;15.10;99.90
76120;DHT22;64852;48.092;-1.640;2024-01-30T13:36:39;14.80;99.90
76120;DHT22;64852;48.092;-1.640;2024-01-30T13:39:04;14.60;99.90
76120;DHT22;64852;48.092;-1.640;2024-01-30T13:41:33;14.70;99.90
76120;DHT22;64852;48.092;-1.640;2024-01-30T13:43:59;14.60;99.90
76120;DHT22;64852;48.092;-1.640;2024-01-30T13:46:24;14.80;99.90
76120;DHT22;64852;48.092;-1.640;2024-01-30T13:48:50;15.00;99.90
76120;DHT22;64852;48.092;-1.640;2024-01-30T13:51:16;15.10;99.90
76120;DHT22;64852;48.092;-1.640;2024-01-30T13:53:42;15.10;99.90
76120;DHT22;64852;48.092;-1.640;2024-01-30T13:56:08;15.00;99.90
76120;DHT22;64852;48.092;-1.640;2024-01-30T13:58:33;14.90;99.90
76120;DHT22;64852;48.092;-1.640;2024-01-30T14:01:01;14.80;99.90
76120;DHT22;64852;48.092;-1.640;2024-01-30T14:03:26;14.70;99.90
76120;DHT22;64852;48.092;-1.640;2024-01-30T14:05:52;14.60;99.90
76120;DHT22;64852;48.092;-1.640;2024-01-30T14:08:18;14.60;99.90
76120;DHT22;64852;48.092;-1.640;2024-01-30T14:10:43;14.50;99.90
76120;DHT22;64852;48.092;-1.640;2024-01-30T14:13:09;14.60;99.90
76120;DHT22;64852;48.092;-1.640;2024-01-30T14:15:35;14.70;99.90
76120;DHT22;64852;48.092;-1.640;2024-01-30T14:18:01;14.70;99.90
76120;DHT22;64852;48.092;-1.640;2024-01-30T14:20:26;14.80;99.90
76120;DHT22;64852;48.092;-1.640;2024-01-30T14:22:52;14.90;99.90
76120;DHT22;64852;48.092;-1.640;2024-01-30T14:25:20;14.80;99.90
76120;DHT22;64852;48.092;-1.640;2024-01-30T14:27:46;14.80;99.90
76120;DHT22;64852;48.092;-1.640;2024-01-30T14:30:12;14.90;99.90
76120;DHT22;64852;48.092;-1.640;2024-01-30T14:32:37;15.00;99.90
76120;DHT22;64852;48.092;-1.640;2024-01-30T14:35:04;15.00;99.90
76120;DHT22;64852;48.092;-1.640;2024-01-30T14:37:30;15.00;99.90
76120;DHT22;64852;48.092;-1.640;2024-01-30T14:39:55;14.90;99.90
76120;DHT22;64852;48.092;-1.640;2024-01-30T14:42:21;15.00;99.90
76120;DHT22;64852;48.092;-1.640;2024-01-30T14:44:46;15.00;99.90
76120;DHT22;64852;48.092;-1.640;2024-01-30T14:47:12;15.10;99.90
76120;DHT22;64852;48.092;-1.640;2024-01-30T14:49:38;15.10;99.90
76120;DHT22;64852;48.092;-1.640;2024-01-30T14:52:04;15.00;99.90
76120;DHT22;64852;48.092;-1.640;2024-01-30T14:54:30;14.70;99.90
76120;DHT22;64852;48.092;-1.640;2024-01-30T14:56:55;14.70;99.90
76120;DHT22;64852;48.092;-1.640;2024-01-30T14:59:21;14.50;99.90
76120;DHT22;64852;48.092;-1.640;2024-01-30T15:01:47;14.40;99.90
76120;DHT22;64852;48.092;-1.640;2024-01-30T15:04:13;14.30;99.90
76120;DHT22;64852;48.092;-1.640;2024-01-30T15:06:39;14.30;99.90
76120;DHT22;64852;48.092;-1.640;2024-01-30T15:09:11;14.20;99.90
76120;DHT22;64852;48.092;-1.640;2024-01-30T15:11:36;14.10;99.90
76120;DHT22;64852;48.092;-1.640;2024-01-30T15:14:02;14.00;99.90